Airfield :
LOGIN :

Register | Disclaimer

   EN    FR    IT 

 










Legend :    VFR   Marginal VFR   IFR   Intensive IFR   Very Intensive IFR
Visi :
Ceiling :
>= 8 km
>= 3000ft
5 to 8 km
1000 to 3000 ft
1500m to 5 km
500 to 1000 ft
800 to 1500m
200 to 500 ft
< 800m
< 200 ft
Symbols :   Thunderstorms  Fog  Heavy snow  Heavy precipitations  Wind > 20 kt
SIGMETs :     Misc.  Thunderstorms  Icing  Turbulence  Mountain Waves  Volcanic Ashes







- Airport Elevation : 285 ft
- IATA code : OZP


LEMO - Sevilla Moron

CURRENT METAR :
  • 240700Z 24003KT 200V300 CAVOK 18/12 Q1013 NOSIG

EXPIRED METARs :
  • 240600Z 00000KT CAVOK 14/10 Q1013 NOSIG
  • 240500Z 15004KT CAVOK 13/10 Q1013 NOSIG

TAF TAF LEMO
Valid from the 24 at 06:00 until the 24 at 15:00 UTC


240500Z 2406/2415 29005KT CAVOK
No reported NOTAMs for that airfield.
2 SIGMETs reported for the Madrid FIR (LECM) :
 
Embedded thunderstorms
LECM SIGMET 5 VALID 240700/240900 LEVA
LECM MADRID FIR/UIR EMBD TS OBS AT 0648Z WI N4202 W00020 - N3957 W00058 - N4055 W00226 - N4235 W00135 - N4202 W00020 TOP FL300 MOV E NC=
Severe turbulence
LECM SIGMET 4 VALID 240800/241200 LEVA
LECM MADRID UIR SEV TURB FCST WI N4347 W00234 - N4155 W00334 - N4119 W00148 - N4253 W00047 - N4347 W00234 FL250/340 MOV E WKN=



MET'MAP, your aeronautical weather chart ! - Copyright ORBIFLY December 2007 - Disclaimer

ORBIFLY MET'MAP TEAM :

Programming & Development : Alexandra Zaïnal
Concept & Development : Baudouin d'Aumeries
Co-Development & Prog : Marc-Olivier Méhu
Technical & hardware support : Manuel Goepfert

Contact : metmap@orbifly.com




SOURCES & CREDITS :

   NOAA